Accueil
METAR-TAF:

METAR-TAF

Aéroports :

Saint-Nazaire, France

Aéroport de Saint-Nazaire - Montoir

latitude: 47-19N, longitude: 002-10W, altitude: 3 m

Observation

Le bulletin a été fait il y a 11 minutes, à 08:00 UTC
Vent 9 kt de ouest/sud-ouest
Température 16°C
Humidité 77%
Pression 1024 hPa
Visibilité 10 km ou plus
pas de nuages en-dessous de 1500 mètres et pas de cumulonimbus.

METAR: LFRZ 230800Z AUTO 24009KT CAVOK 16/12 Q1024 NOSIG

Heure: 10:11 (08:11 UTC)

Prévision

Le bulletin a été fait il y a 3 heures et 11 minutes, à 05:00 UTC
Prévision valable du 23 à 06 UTC au 24 à 06 UTC
Vent 8 kt de ouest/sud-ouest
Visibilité 10 km ou plus
Nuages épars à une hauteur de 2500 ft
Nuages fragmentés à une hauteur de 4000 ft
Temporairement
du 23 à 12 UTC au 24 à 03 UTC
Nuages fragmentés à une hauteur de 1000 ft
pluie faible

TAF: LFRZ 230500Z 2306/2406 24008KT 9999 SCT025 BKN040 TEMPO 2312/2403 -RA BKN010

Observations et prévisions météorologiques de plus de 4000 aéroports (messages METAR et TAF).

Les stations disponibles sont représentées par des disques jaunes et rouges sur la carte.

Passer la souris dessus pour voir le nom de la station.

Cliquer dessus pour voir les observations et prévisions météorologiques.

Pour changer de carte: cliquez sur les boutons verts avec une croix noire pour zoomer, sur le bouton vert avec un tiret pour effectuer un zoom arrière, ou sur les flèches vertes pour les cartes adjacentes.


METAR-TAF: